Observation data for Aspermont on 03/25/2019      Previous  Date  Next       Current Mesonet Observations  Soil Data  Daily Summary Page  Observations in Plain Language
KASR 250500Z 09002KT 11/07 A3008 RMK A01 T01100070  RH  077%=      5-min Rain = 0
KASR 250505Z 09001KT 11/06 A3008 RMK A01 T01060064  RH  077%=      5-min Rain = 0
KASR 250510Z 10001KT 10/06 A3008 RMK A01 T00990059  RH  077%=      5-min Rain = 0
KASR 250515Z 10001KT 09/06 A3008 RMK A01 T00940061  RH  081%=      5-min Rain = 0
KASR 250520Z 10002KT 09/06 A3008 RMK A01 T00930063  RH  083%=      5-min Rain = 0
KASR 250525Z 10002KT 09/06 A3008 RMK A01 T00920063  RH  084%=      5-min Rain = 0
KASR 250530Z 10002KT 10/07 A3008 RMK A01 T00960068  RH  084%=      5-min Rain = 0
KASR 250535Z 11002KT 10/07 A3008 RMK A01 T00980065  RH  081%=      5-min Rain = 0
KASR 250540Z 10002KT 09/06 A3008 RMK A01 T00940061  RH  081%=      5-min Rain = 0
KASR 250545Z 10001KT 09/06 A3008 RMK A01 T00910061  RH  082%=      5-min Rain = 0
KASR 250550Z 10001KT 09/06 A3008 RMK A01 T00910060  RH  082%=      5-min Rain = 0
KASR 250555Z 09001KT 09/06 A3008 RMK A01 T00890058  RH  082%=      5-min Rain = 0
KASR 250600Z 08002KT 09/06 A3008 RMK A01 T00860057  RH  083%=      5-min Rain = 0
KASR 250605Z 10001KT 08/06 A3008 RMK A01 T00840058  RH  084%=      5-min Rain = 0
KASR 250610Z 11001KT 09/06 A3008 RMK A01 T00880059  RH  083%=      5-min Rain = 0
KASR 250615Z 11000KT 08/05 A3008 RMK A01 T00840054  RH  083%=      5-min Rain = 0
KASR 250620Z 32001KT 08/06 A3009 RMK A01 T00830057  RH  085%=      5-min Rain = 0
KASR 250625Z 34001KT 08/06 A3009 RMK A01 T00820057  RH  085%=      5-min Rain = 0
KASR 250630Z 33001KT 08/05 A3009 RMK A01 T00790054  RH  086%=      5-min Rain = 0
KASR 250635Z 31001KT 08/05 A3009 RMK A01 T00750053  RH  087%=      5-min Rain = 0
KASR 250640Z 30001KT 07/05 A301 RMK A01 T00740053  RH  088%=      5-min Rain = 0
KASR 250645Z 26002KT 07/05 A301 RMK A01 T00730052  RH  088%=      5-min Rain = 0
KASR 250650Z 26003KT 08/06 A301 RMK A01 T00790057  RH  087%=      5-min Rain = 0
KASR 250655Z 27002KT 08/06 A301 RMK A01 T00810055  RH  085%=      5-min Rain = 0
KASR 250700Z 28002KT 08/05 A301 RMK A01 T00750053  RH  087%=      5-min Rain = 0
KASR 250705Z 31002KT 07/05 A301 RMK A01 T00720053  RH  089%=      5-min Rain = 0
KASR 250710Z 33003KT 07/06 A301 RMK A01 T00730058  RH  091%=      5-min Rain = 0
KASR 250715Z 34003KT 08/06 A3011 RMK A01 T00750059  RH  091%=      5-min Rain = 0
KASR 250720Z 33002KT 08/06 A3012 RMK A01 T00770059  RH  090%=      5-min Rain = 0
KASR 250725Z 33002KT 08/06 A3012 RMK A01 T00780060  RH  090%=      5-min Rain = 0
KASR 250730Z 32004KT 08/06 A3012 RMK A01 T00770059  RH  090%=      5-min Rain = 0
KASR 250735Z 33004KT 07/05 A3013 RMK A01 T00730051  RH  087%=      5-min Rain = 0
KASR 250740Z 34005KT 07/05 A3013 RMK A01 T00700048  RH  087%=      5-min Rain = 0
KASR 250745Z 34005KT 07/05 A3013 RMK A01 T00710051  RH  088%=      5-min Rain = 0
KASR 250750Z 34005KT 07/05 A3013 RMK A01 T00740054  RH  088%=      5-min Rain = 0
KASR 250755Z 33004KT 08/05 A3014 RMK A01 T00750054  RH  088%=      5-min Rain = 0
KASR 250800Z 33003KT 08/05 A3014 RMK A01 T00760054  RH  087%=      5-min Rain = 0
KASR 250805Z 33002KT 08/05 A3014 RMK A01 T00760054  RH  088%=      5-min Rain = 0
KASR 250810Z 35003KT 08/06 A3014 RMK A01 T00770057  RH  088%=      5-min Rain = 0
KASR 250815Z 36004KT 08/06 A3014 RMK A01 T00770057  RH  089%=      5-min Rain = 0
KASR 250820Z 35003KT 08/06 A3015 RMK A01 T00770057  RH  089%=      5-min Rain = 0
KASR 250825Z 35002KT 08/06 A3015 RMK A01 T00750055  RH  088%=      5-min Rain = 0
KASR 250830Z 36002KT 07/06 A3015 RMK A01 T00740055  RH  089%=      5-min Rain = 0
KASR 250835Z 36002KT 07/06 A3015 RMK A01 T00740055  RH  089%=      5-min Rain = 0
KASR 250840Z 35002KT 07/06 A3015 RMK A01 T00720055  RH  090%=      5-min Rain = 0
KASR 250845Z 35002KT 07/05 A3015 RMK A01 T00710052  RH  089%=      5-min Rain = 0
KASR 250850Z 35002KT 07/05 A3015 RMK A01 T00680049  RH  089%=      5-min Rain = 0
KASR 250855Z 34002KT 07/05 A3014 RMK A01 T00670051  RH  091%=      5-min Rain = 0
KASR 250900Z 35003KT 07/05 A3014 RMK A01 T00660052  RH  092%=      5-min Rain = 0
KASR 250905Z 00002KT 06/05 A3014 RMK A01 T00630050  RH  093%=      5-min Rain = 0
KASR 250910Z 35002KT 06/05 A3014 RMK A01 T00620051  RH  094%=      5-min Rain = 0
KASR 250915Z 35003KT 07/06 A3014 RMK A01 T00650056  RH  095%=      5-min Rain = 0
KASR 250920Z 34003KT 07/06 A3014 RMK A01 T00660056  RH  095%=      5-min Rain = 0
KASR 250925Z 34003KT 06/05 A3014 RMK A01 T00640054  RH  094%=      5-min Rain = 0
KASR 250930Z 35003KT 06/05 A3014 RMK A01 T00620052  RH  094%=      5-min Rain = 0
KASR 250935Z 35002KT 06/05 A3014 RMK A01 T00600050  RH  094%=      5-min Rain = 0
KASR 250940Z 35002KT 06/05 A3014 RMK A01 T00610052  RH  095%=      5-min Rain = 0
KASR 250945Z 35003KT 06/05 A3014 RMK A01 T00630054  RH  095%=      5-min Rain = 0
KASR 250950Z 35003KT 06/05 A3014 RMK A01 T00630054  RH  095%=      5-min Rain = 0
KASR 250955Z 34002KT 06/05 A3014 RMK A01 T00580048  RH  094%=      5-min Rain = 0
KASR 251000Z 33002KT 06/05 A3015 RMK A01 T00590050  RH  095%=      5-min Rain = 0
KASR 251005Z 33003KT 06/05 A3015 RMK A01 T00610051  RH  095%=      5-min Rain = 0
KASR 251010Z 33003KT 06/05 A3015 RMK A01 T00600049  RH  094%=      5-min Rain = 0
KASR 251015Z 34004KT 06/05 A3015 RMK A01 T00560045  RH  094%=      5-min Rain = 0
KASR 251020Z 34004KT 06/05 A3015 RMK A01 T00550045  RH  094%=      5-min Rain = 0
KASR 251025Z 34004KT 06/04 A3015 RMK A01 T00550044  RH  094%=      5-min Rain = 0
KASR 251030Z 34004KT 06/05 A3015 RMK A01 T00550045  RH  094%=      5-min Rain = 0
KASR 251035Z 34002KT 06/05 A3015 RMK A01 T00550045  RH  094%=      5-min Rain = 0
KASR 251040Z 33002KT 06/04 A3015 RMK A01 T00550044  RH  094%=      5-min Rain = 0
KASR 251045Z 32003KT 06/05 A3016 RMK A01 T00560046  RH  095%=      5-min Rain = 0
KASR 251050Z 33003KT 06/05 A3015 RMK A01 T00550045  RH  094%=      5-min Rain = 0
KASR 251055Z 34003KT 05/04 A3016 RMK A01 T00520041  RH  094%=      5-min Rain = 0
KASR 251100Z 33003KT 05/04 A3016 RMK A01 T00500041  RH  095%=      5-min Rain = 0
KASR 251105Z 33003KT 05/04 A3016 RMK A01 T00500041  RH  095%=      5-min Rain = 0
KASR 251110Z 33003KT 05/04 A3016 RMK A01 T00510042  RH  095%=      5-min Rain = 0
KASR 251115Z 32002KT 05/04 A3016 RMK A01 T00510043  RH  095%=      5-min Rain = 0
KASR 251120Z 32001KT 05/04 A3016 RMK A01 T00510042  RH  095%=      5-min Rain = 0
KASR 251125Z 32001KT 05/04 A3016 RMK A01 T00480038  RH  095%=      5-min Rain = 0
KASR 251130Z 31002KT 05/04 A3017 RMK A01 T00470038  RH  095%=      5-min Rain = 0
KASR 251135Z 30003KT 05/04 A3017 RMK A01 T00490041  RH  096%=      5-min Rain = 0
KASR 251140Z 29003KT 05/04 A3018 RMK A01 T00470038  RH  095%=      5-min Rain = 0
KASR 251145Z 29003KT 04/04 A3018 RMK A01 T00440037  RH  096%=      5-min Rain = 0
KASR 251150Z 29004KT 04/04 A3018 RMK A01 T00440037  RH  096%=      5-min Rain = 0
KASR 251155Z 29004KT 05/04 A3018 RMK A01 T00460039  RH  097%=      5-min Rain = 0
KASR 251200Z 28003KT 05/04 A3018 RMK A01 T00480041  RH  097%=      5-min Rain = 0
KASR 251205Z 29004KT 05/04 A3018 RMK A01 T00480041  RH  097%=      5-min Rain = 0
KASR 251210Z 30004KT 05/04 A3019 RMK A01 T00460040  RH  097%=      5-min Rain = 0
KASR 251215Z 31003KT 05/04 A3019 RMK A01 T00470040  RH  097%=      5-min Rain = 0
KASR 251220Z 32004KT 05/04 A3019 RMK A01 T00460039  RH  097%=      5-min Rain = 0
KASR 251225Z 32003KT 04/04 A3019 RMK A01 T00440037  RH  097%=      5-min Rain = 0
KASR 251230Z 32004KT 04/04 A3019 RMK A01 T00440037  RH  097%=      5-min Rain = 0
KASR 251235Z 32004KT 04/04 A3019 RMK A01 T00440038  RH  097%=      5-min Rain = 0
KASR 251240Z 30003KT 04/04 A3019 RMK A01 T00440038  RH  097%=      5-min Rain = 0
KASR 251245Z 28003KT 05/04 A3019 RMK A01 T00460041  RH  097%=      5-min Rain = 0
KASR 251250Z 27003KT 05/04 A302 RMK A01 T00480042  RH  097%=      5-min Rain = 0
KASR 251255Z 28002KT 05/05 A302 RMK A01 T00510045  RH  097%=      5-min Rain = 0
KASR 251300Z 32002KT 05/05 A302 RMK A01 T00520046  RH  097%=      5-min Rain = 0
KASR 251305Z 31002KT 06/05 A302 RMK A01 T00550048  RH  097%=      5-min Rain = 0
KASR 251310Z 32003KT 06/05 A3021 RMK A01 T00550048  RH  096%=      5-min Rain = 0
KASR 251315Z 32003KT 06/05 A3021 RMK A01 T00560047  RH  095%=      5-min Rain = 0
KASR 251320Z 33003KT 06/05 A3021 RMK A01 T00580048  RH  095%=      5-min Rain = 0
KASR 251325Z 35003KT 06/05 A3022 RMK A01 T00600049  RH  094%=      5-min Rain = 0
KASR 251330Z 35004KT 06/05 A3022 RMK A01 T00630052  RH  094%=      5-min Rain = 0
KASR 251335Z 35004KT 07/06 A3022 RMK A01 T00670055  RH  093%=      5-min Rain = 0
KASR 251340Z 00004KT 07/06 A3022 RMK A01 T00710057  RH  092%=      5-min Rain = 0
KASR 251345Z 00005KT 08/06 A3023 RMK A01 T00770061  RH  091%=      5-min Rain = 0
KASR 251350Z 01006KT 08/07 A3023 RMK A01 T00840065  RH  089%=      5-min Rain = 0
KASR 251355Z 01006KT 09/07 A3023 RMK A01 T00900067  RH  087%=      5-min Rain = 0
KASR 251400Z 01005KT 09/07 A3023 RMK A01 T00940069  RH  085%=      5-min Rain = 0
KASR 251405Z 01005KT 10/07 A3023 RMK A01 T00970071  RH  085%=      5-min Rain = 0
KASR 251410Z 02006KT 10/07 A3024 RMK A01 T01010071  RH  083%=      5-min Rain = 0
KASR 251415Z 02005KT 11/07 A3024 RMK A01 T01050073  RH  082%=      5-min Rain = 0
KASR 251420Z 01006KT 11/07 A3024 RMK A01 T01090074  RH  080%=      5-min Rain = 0
KASR 251425Z 01006KT 11/08 A3024 RMK A01 T01130075  RH  079%=      5-min Rain = 0
KASR 251430Z 02007KT 12/08 A3025 RMK A01 T01200077  RH  076%=      5-min Rain = 0
KASR 251435Z 03008KT 13/08 A3025 RMK A01 T01250076  RH  073%=      5-min Rain = 0
KASR 251440Z 03009KT 13/08 A3025 RMK A01 T01270076  RH  072%=      5-min Rain = 0
KASR 251445Z 03008G14KT 13/08 A3026 RMK A01 T01310078  RH  072%=      5-min Rain = 0
KASR 251450Z 02010KT 13/08 A3026 RMK A01 T01310078  RH  071%=      5-min Rain = 0
KASR 251455Z 03011KT 14/08 A3026 RMK A01 T01350079  RH  070%=      5-min Rain = 0
KASR 251500Z 03009G14KT 14/08 A3027 RMK A01 T01380078  RH  068%=      5-min Rain = 0
KASR 251505Z 04010KT 14/08 A3027 RMK A01 T01390079  RH  068%=      5-min Rain = 0
KASR 251510Z 02009G14KT 14/08 A3027 RMK A01 T01410079  RH  068%=      5-min Rain = 0
KASR 251515Z 02009KT 14/08 A3028 RMK A01 T01410079  RH  067%=      5-min Rain = 0
KASR 251520Z 02009KT 14/08 A3028 RMK A01 T01410079  RH  067%=      5-min Rain = 0
KASR 251525Z 03009G14KT 15/08 A3028 RMK A01 T01450081  RH  066%=      5-min Rain = 0
KASR 251530Z 04008KT 15/08 A3028 RMK A01 T01460082  RH  066%=      5-min Rain = 0
KASR 251535Z 04008KT 15/08 A3028 RMK A01 T01490080  RH  064%=      5-min Rain = 0
KASR 251540Z 04009KT 15/08 A3028 RMK A01 T01480079  RH  064%=      5-min Rain = 0
KASR 251545Z 03009KT 15/08 A3028 RMK A01 T01480077  RH  063%=      5-min Rain = 0
KASR 251550Z 04009KT 15/08 A3028 RMK A01 T01510078  RH  062%=      5-min Rain = 0
KASR 251555Z 04010KT 15/08 A3029 RMK A01 T01530080  RH  063%=      5-min Rain = 0
KASR 251600Z 04009KT 15/08 A3029 RMK A01 T01520080  RH  063%=      5-min Rain = 0
KASR 251605Z 06009KT 15/08 A3029 RMK A01 T01530077  RH  061%=      5-min Rain = 0
KASR 251610Z 05009G14KT 16/08 A3029 RMK A01 T01550079  RH  061%=      5-min Rain = 0
KASR 251615Z 04008KT 15/08 A3029 RMK A01 T01530079  RH  062%=      5-min Rain = 0
KASR 251620Z 02009KT 15/08 A3029 RMK A01 T01520079  RH  062%=      5-min Rain = 0
KASR 251625Z 04008KT 16/08 A3029 RMK A01 T01570079  RH  061%=      5-min Rain = 0
KASR 251630Z 06009KT 16/08 A3029 RMK A01 T01590079  RH  060%=      5-min Rain = 0
KASR 251635Z 05010G15KT 16/08 A3029 RMK A01 T01580076  RH  059%=      5-min Rain = 0
KASR 251640Z 05009KT 16/08 A3029 RMK A01 T01580077  RH  059%=      5-min Rain = 0
KASR 251645Z 05008G14KT 16/08 A3029 RMK A01 T01600077  RH  059%=      5-min Rain = 0
KASR 251650Z 05009KT 16/08 A3029 RMK A01 T01620078  RH  058%=      5-min Rain = 0
KASR 251655Z 04008G14KT 16/08 A3029 RMK A01 T01630079  RH  059%=      5-min Rain = 0
KASR 251700Z 02008KT 16/08 A3029 RMK A01 T01620079  RH  059%=      5-min Rain = 0
KASR 251705Z 04009KT 16/08 A3029 RMK A01 T01640081  RH  059%=      5-min Rain = 0
KASR 251710Z 04009KT 17/08 A3029 RMK A01 T01650079  RH  058%=      5-min Rain = 0
KASR 251715Z 04009G15KT 17/08 A3029 RMK A01 T01670079  RH  057%=      5-min Rain = 0
KASR 251720Z 04008G13KT 17/08 A3029 RMK A01 T01680081  RH  057%=      5-min Rain = 0
KASR 251725Z 05008G14KT 17/08 A3029 RMK A01 T01700081  RH  056%=      5-min Rain = 0
KASR 251730Z 08008G13KT 17/08 A3029 RMK A01 T01720080  RH  056%=      5-min Rain = 0
KASR 251735Z 05008G13KT 17/08 A3029 RMK A01 T01700080  RH  056%=      5-min Rain = 0
KASR 251740Z 05006G12KT 17/08 A3029 RMK A01 T01700080  RH  056%=      5-min Rain = 0
KASR 251745Z 07009KT 17/08 A3029 RMK A01 T01710080  RH  056%=      5-min Rain = 0
KASR 251750Z 05009KT 17/08 A3029 RMK A01 T01730081  RH  056%=      5-min Rain = 0
KASR 251755Z 07007KT 18/08 A3029 RMK A01 T01760082  RH  055%=      5-min Rain = 0
KASR 251800Z 07008G13KT 18/08 A3029 RMK A01 T01750080  RH  055%=      5-min Rain = 0
KASR 251805Z 05008KT 18/08 A3029 RMK A01 T01780083  RH  054%=      5-min Rain = 0
KASR 251810Z 05006G12KT 18/08 A3029 RMK A01 T01760081  RH  054%=      5-min Rain = 0
KASR 251815Z 07008KT 18/08 A3029 RMK A01 T01770083  RH  055%=      5-min Rain = 0
KASR 251820Z 05008KT 18/08 A3029 RMK A01 T01790083  RH  054%=      5-min Rain = 0
KASR 251825Z 04008G15KT 18/08 A3028 RMK A01 T01800084  RH  054%=      5-min Rain = 0
KASR 251830Z 06008KT 18/08 A3028 RMK A01 T01800084  RH  054%=      5-min Rain = 0
KASR 251835Z 07008KT 18/08 A3028 RMK A01 T01810083  RH  054%=      5-min Rain = 0
KASR 251840Z 05010KT 18/09 A3028 RMK A01 T01830085  RH  054%=      5-min Rain = 0
KASR 251845Z 08008G13KT 18/08 A3028 RMK A01 T01820084  RH  053%=      5-min Rain = 0
KASR 251850Z 05009G14KT 18/09 A3028 RMK A01 T01840086  RH  053%=      5-min Rain = 0
KASR 251855Z 02007KT 18/08 A3028 RMK A01 T01820084  RH  053%=      5-min Rain = 0
KASR 251900Z 02005G12KT 18/09 A3028 RMK A01 T01840090  RH  055%=      5-min Rain = 0
KASR 251905Z 03007G13KT 19/09 A3027 RMK A01 T01880087  RH  053%=      5-min Rain = 0
KASR 251910Z 04007KT 19/08 A3027 RMK A01 T01850084  RH  053%=      5-min Rain = 0
KASR 251915Z 02007G12KT 18/08 A3027 RMK A01 T01830083  RH  053%=      5-min Rain = 0
KASR 251920Z 02007G13KT 19/09 A3027 RMK A01 T01870088  RH  053%=      5-min Rain = 0
KASR 251925Z 04008KT 19/09 A3027 RMK A01 T01870085  RH  052%=      5-min Rain = 0
KASR 251930Z 08006KT 19/09 A3027 RMK A01 T01860085  RH  052%=      5-min Rain = 0
KASR 251935Z 08007G12KT 19/09 A3026 RMK A01 T01890086  RH  052%=      5-min Rain = 0
KASR 251940Z 08006KT 19/09 A3026 RMK A01 T01940087  RH  051%=      5-min Rain = 0
KASR 251945Z 05009G14KT 19/09 A3026 RMK A01 T01940089  RH  051%=      5-min Rain = 0
KASR 251950Z 04008G13KT 19/09 A3026 RMK A01 T01910085  RH  051%=      5-min Rain = 0
KASR 251955Z 05005G15KT 19/09 A3025 RMK A01 T01910085  RH  051%=      5-min Rain = 0
KASR 252000Z 02009G14KT 19/09 A3025 RMK A01 T01910086  RH  051%=      5-min Rain = 0
KASR 252005Z 04009KT 19/09 A3025 RMK A01 T01940090  RH  052%=      5-min Rain = 0
KASR 252010Z 07006G11KT 20/09 A3025 RMK A01 T01960085  RH  049%=      5-min Rain = 0
KASR 252015Z 06009KT 19/09 A3024 RMK A01 T01940086  RH  050%=      5-min Rain = 0
KASR 252020Z 05006KT 19/09 A3024 RMK A01 T01940085  RH  050%=      5-min Rain = 0
KASR 252025Z 07009KT 20/09 A3024 RMK A01 T01970087  RH  050%=      5-min Rain = 0
KASR 252030Z 04008KT 20/09 A3024 RMK A01 T01950085  RH  050%=      5-min Rain = 0
KASR 252035Z 06006G14KT 20/08 A3024 RMK A01 T01960082  RH  048%=      5-min Rain = 0
KASR 252040Z 08007KT 20/09 A3024 RMK A01 T01990087  RH  049%=      5-min Rain = 0
KASR 252045Z 03007KT 20/09 A3024 RMK A01 T02020089  RH  049%=      5-min Rain = 0
KASR 252050Z 04010KT 20/09 A3023 RMK A01 T02000085  RH  048%=      5-min Rain = 0
KASR 252055Z 03007KT 20/08 A3023 RMK A01 T01970084  RH  049%=      5-min Rain = 0
KASR 252100Z 06006KT 20/08 A3023 RMK A01 T01980081  RH  048%=      5-min Rain = 0
KASR 252105Z 03006G11KT 20/09 A3023 RMK A01 T01990086  RH  049%=      5-min Rain = 0
KASR 252110Z 06007G12KT 20/09 A3023 RMK A01 T02040085  RH  047%=      5-min Rain = 0
KASR 252115Z 04008KT 20/08 A3023 RMK A01 T02030084  RH  047%=      5-min Rain = 0
KASR 252120Z 03009G14KT 20/08 A3023 RMK A01 T02000082  RH  047%=      5-min Rain = 0
KASR 252125Z 03007G12KT 20/08 A3023 RMK A01 T02000084  RH  048%=      5-min Rain = 0
KASR 252130Z 04008G13KT 20/08 A3023 RMK A01 T02030084  RH  047%=      5-min Rain = 0
KASR 252135Z 06009KT 20/08 A3023 RMK A01 T02010082  RH  047%=      5-min Rain = 0
KASR 252140Z 06007G12KT 20/08 A3023 RMK A01 T02000081  RH  047%=      5-min Rain = 0
KASR 252145Z 04008KT 20/08 A3022 RMK A01 T02010080  RH  046%=      5-min Rain = 0
KASR 252150Z 04007G12KT 20/08 A3022 RMK A01 T02000081  RH  047%=      5-min Rain = 0
KASR 252155Z 06009KT 21/08 A3022 RMK A01 T02060084  RH  046%=      5-min Rain = 0
KASR 252200Z 04007KT 20/08 A3022 RMK A01 T02020079  RH  046%=      5-min Rain = 0
KASR 252205Z 03009KT 20/08 A3022 RMK A01 T02030082  RH  046%=      5-min Rain = 0
KASR 252210Z 03008KT 20/08 A3022 RMK A01 T02040081  RH  046%=      5-min Rain = 0
KASR 252215Z 04010KT 20/08 A3022 RMK A01 T02030083  RH  047%=      5-min Rain = 0
KASR 252220Z 04008G16KT 20/08 A3022 RMK A01 T02020081  RH  046%=      5-min Rain = 0
KASR 252225Z 04008KT 20/08 A3022 RMK A01 T02020082  RH  047%=      5-min Rain = 0
KASR 252230Z 05008KT 20/08 A3022 RMK A01 T02010081  RH  047%=      5-min Rain = 0
KASR 252235Z 07007KT 20/08 A3022 RMK A01 T02030080  RH  046%=      5-min Rain = 0
KASR 252240Z 05007KT 20/08 A3022 RMK A01 T02030081  RH  046%=      5-min Rain = 0
KASR 252245Z 06006G11KT 20/08 A3022 RMK A01 T02020082  RH  047%=      5-min Rain = 0
KASR 252250Z 03007G12KT 21/08 A3022 RMK A01 T02050083  RH  046%=      5-min Rain = 0
KASR 252255Z 05007KT 20/08 A3022 RMK A01 T02020081  RH  046%=      5-min Rain = 0
KASR 252300Z 07007G12KT 20/08 A3022 RMK A01 T02020081  RH  046%=      5-min Rain = 0
KASR 252305Z 04008KT 20/08 A3022 RMK A01 T02010079  RH  046%=      5-min Rain = 0
KASR 252310Z 06006KT 20/08 A3022 RMK A01 T02010081  RH  047%=      5-min Rain = 0
KASR 252315Z 05007KT 20/08 A3022 RMK A01 T02020083  RH  047%=      5-min Rain = 0
KASR 252320Z 03009KT 20/08 A3022 RMK A01 T01990080  RH  047%=      5-min Rain = 0
KASR 252325Z 05007KT 20/08 A3022 RMK A01 T02000081  RH  047%=      5-min Rain = 0
KASR 252330Z 05009KT 20/08 A3022 RMK A01 T01990080  RH  047%=      5-min Rain = 0
KASR 252335Z 07006KT 20/08 A3022 RMK A01 T01980080  RH  047%=      5-min Rain = 0
KASR 252340Z 06006KT 20/08 A3023 RMK A01 T01970079  RH  047%=      5-min Rain = 0
KASR 252345Z 05008KT 20/08 A3023 RMK A01 T01970081  RH  048%=      5-min Rain = 0
KASR 252350Z 05008KT 20/08 A3023 RMK A01 T01950079  RH  048%=      5-min Rain = 0
KASR 252355Z 04007KT 19/08 A3023 RMK A01 T01940079  RH  048%=      5-min Rain = 0
KASR 260000Z 05008KT 19/08 A3023 RMK A01 T01920079  RH  048%=      5-min Rain = 0
KASR 260005Z 05007KT 19/08 A3023 RMK A01 T01910079  RH  049%=      5-min Rain = 0
KASR 260010Z 05006KT 19/08 A3023 RMK A01 T01900079  RH  049%=      5-min Rain = 0
KASR 260015Z 06006KT 19/08 A3023 RMK A01 T01890078  RH  049%=      5-min Rain = 0
KASR 260020Z 05007KT 19/08 A3023 RMK A01 T01870078  RH  050%=      5-min Rain = 0
KASR 260025Z 05007KT 19/08 A3023 RMK A01 T01850078  RH  050%=      5-min Rain = 0
KASR 260030Z 05007KT 18/08 A3023 RMK A01 T01830078  RH  051%=      5-min Rain = 0
KASR 260035Z 05007KT 18/08 A3023 RMK A01 T01810079  RH  052%=      5-min Rain = 0
KASR 260040Z 06006KT 18/08 A3023 RMK A01 T01780080  RH  054%=      5-min Rain = 0
KASR 260045Z 05007KT 18/08 A3023 RMK A01 T01750080  RH  054%=      5-min Rain = 0
KASR 260050Z 05006KT 17/08 A3024 RMK A01 T01720080  RH  055%=      5-min Rain = 0
KASR 260055Z 06006KT 17/08 A3024 RMK A01 T01680080  RH  057%=      5-min Rain = 0
KASR 260100Z 06006KT 17/08 A3024 RMK A01 T01650080  RH  058%=      5-min Rain = 0
KASR 260105Z 06007KT 16/08 A3024 RMK A01 T01630080  RH  059%=      5-min Rain = 0
KASR 260110Z 05006KT 16/08 A3024 RMK A01 T01610080  RH  060%=      5-min Rain = 0
KASR 260115Z 05006KT 16/08 A3024 RMK A01 T01570080  RH  061%=      5-min Rain = 0
KASR 260120Z 06006KT 16/08 A3024 RMK A01 T01550079  RH  062%=      5-min Rain = 0
KASR 260125Z 06006KT 15/08 A3024 RMK A01 T01540079  RH  062%=      5-min Rain = 0
KASR 260130Z 06006KT 15/08 A3024 RMK A01 T01520079  RH  062%=      5-min Rain = 0
KASR 260135Z 06005KT 15/08 A3025 RMK A01 T01480078  RH  064%=      5-min Rain = 0
KASR 260140Z 06006KT 15/08 A3025 RMK A01 T01460077  RH  064%=      5-min Rain = 0
KASR 260145Z 07006KT 14/08 A3025 RMK A01 T01440077  RH  065%=      5-min Rain = 0
KASR 260150Z 06006KT 14/08 A3025 RMK A01 T01430076  RH  065%=      5-min Rain = 0
KASR 260155Z 06006KT 14/08 A3025 RMK A01 T01420076  RH  066%=      5-min Rain = 0
KASR 260200Z 06006KT 14/08 A3025 RMK A01 T01410076  RH  066%=      5-min Rain = 0
KASR 260205Z 06006KT 14/08 A3026 RMK A01 T01390075  RH  066%=      5-min Rain = 0
KASR 260210Z 06006KT 14/08 A3026 RMK A01 T01380075  RH  066%=      5-min Rain = 0
KASR 260215Z 06006KT 14/08 A3026 RMK A01 T01370075  RH  067%=      5-min Rain = 0
KASR 260220Z 06006KT 14/07 A3026 RMK A01 T01350074  RH  068%=      5-min Rain = 0
KASR 260225Z 06005KT 13/07 A3027 RMK A01 T01320074  RH  069%=      5-min Rain = 0
KASR 260230Z 06005KT 13/07 A3027 RMK A01 T01300074  RH  070%=      5-min Rain = 0
KASR 260235Z 07005KT 13/07 A3027 RMK A01 T01280072  RH  070%=      5-min Rain = 0
KASR 260240Z 07005KT 13/07 A3028 RMK A01 T01260072  RH  070%=      5-min Rain = 0
KASR 260245Z 07006KT 12/07 A3028 RMK A01 T01240071  RH  071%=      5-min Rain = 0
KASR 260250Z 07005KT 12/07 A3028 RMK A01 T01230071  RH  071%=      5-min Rain = 0
KASR 260255Z 07005KT 12/07 A3028 RMK A01 T01220071  RH  072%=      5-min Rain = 0
KASR 260300Z 07006KT 12/07 A3029 RMK A01 T01200070  RH  072%=      5-min Rain = 0
KASR 260305Z 07006KT 12/07 A3029 RMK A01 T01200069  RH  072%=      5-min Rain = 0
KASR 260310Z 07006KT 12/07 A3029 RMK A01 T01200069  RH  072%=      5-min Rain = 0
KASR 260315Z 08006KT 12/07 A3029 RMK A01 T01180069  RH  073%=      5-min Rain = 0
KASR 260320Z 08006KT 12/07 A3029 RMK A01 T01180068  RH  073%=      5-min Rain = 0
KASR 260325Z 07006KT 12/07 A303 RMK A01 T01180068  RH  073%=      5-min Rain = 0
KASR 260330Z 07007KT 12/07 A303 RMK A01 T01170068  RH  073%=      5-min Rain = 0
KASR 260335Z 07007KT 12/07 A303 RMK A01 T01170067  RH  073%=      5-min Rain = 0
KASR 260340Z 08006KT 12/07 A303 RMK A01 T01150067  RH  073%=      5-min Rain = 0
KASR 260345Z 08006KT 11/07 A303 RMK A01 T01130066  RH  074%=      5-min Rain = 0
KASR 260350Z 08007KT 11/07 A303 RMK A01 T01130066  RH  074%=      5-min Rain = 0
KASR 260355Z 08007KT 11/07 A303 RMK A01 T01120066  RH  074%=      5-min Rain = 0
KASR 260400Z 08006KT 11/07 A303 RMK A01 T01110066  RH  075%=      5-min Rain = 0
KASR 260405Z 08006KT 11/07 A303 RMK A01 T01100065  RH  075%=      5-min Rain = 0
KASR 260410Z 08006KT 11/07 A303 RMK A01 T01080065  RH  076%=      5-min Rain = 0
KASR 260415Z 08006KT 11/07 A303 RMK A01 T01080065  RH  076%=      5-min Rain = 0
KASR 260420Z 08006KT 11/07 A303 RMK A01 T01090065  RH  076%=      5-min Rain = 0
KASR 260425Z 08006KT 11/07 A303 RMK A01 T01090066  RH  075%=      5-min Rain = 0
KASR 260430Z 09006KT 11/07 A303 RMK A01 T01090066  RH  076%=      5-min Rain = 0
KASR 260435Z 09006KT 11/07 A303 RMK A01 T01100067  RH  075%=      5-min Rain = 0
KASR 260440Z 09007KT 11/07 A3029 RMK A01 T01120067  RH  075%=      5-min Rain = 0
KASR 260445Z 09007KT 11/07 A303 RMK A01 T01140068  RH  074%=      5-min Rain = 0
KASR 260450Z 09006KT 11/07 A303 RMK A01 T01140068  RH  074%=      5-min Rain = 0
KASR 260455Z 09007KT 11/07 A3029 RMK A01 T01140068  RH  074%=      5-min Rain = 0

Page generated in 0.009 seconds.